createdAt,value
2023-07-26T00:01:59.696Z,19.40
2023-07-26T00:04:26.813Z,19.40
2023-07-26T00:06:53.818Z,19.40
2023-07-26T00:09:20.964Z,19.40
2023-07-26T00:11:48.080Z,19.40
2023-07-26T00:14:15.283Z,19.40
2023-07-26T00:16:42.514Z,19.30
2023-07-26T00:19:09.941Z,19.30
2023-07-26T00:21:38.024Z,19.30
2023-07-26T00:24:05.240Z,19.30
2023-07-26T00:26:32.480Z,19.30
2023-07-26T00:28:59.657Z,19.30
2023-07-26T00:31:27.045Z,19.30
2023-07-26T00:33:53.939Z,19.30
2023-07-26T00:36:20.888Z,19.30
2023-07-26T00:38:48.971Z,19.30
2023-07-26T00:41:16.056Z,19.20
2023-07-26T00:43:42.963Z,19.20
2023-07-26T00:46:10.430Z,19.20
2023-07-26T00:48:39.258Z,19.10
2023-07-26T00:51:06.696Z,19.10
2023-07-26T00:53:34.746Z,19.10
2023-07-26T00:56:02.139Z,18.90
2023-07-26T00:58:29.709Z,18.90
2023-07-26T01:00:56.864Z,18.80
2023-07-26T01:03:24.284Z,18.70
2023-07-26T01:06:26.318Z,18.60
2023-07-26T01:09:07.039Z,18.50
2023-07-26T01:11:46.251Z,18.50
2023-07-26T01:14:22.430Z,18.40
2023-07-26T01:16:50.067Z,18.40
2023-07-26T01:19:17.424Z,18.40
2023-07-26T01:21:44.689Z,18.30
2023-07-26T01:24:11.645Z,18.30
2023-07-26T01:26:39.848Z,18.30
2023-07-26T01:29:07.519Z,18.40
2023-07-26T01:31:34.789Z,18.30
2023-07-26T01:34:03.026Z,18.30
2023-07-26T01:36:33.700Z,18.30
2023-07-26T01:39:03.756Z,18.30
2023-07-26T01:41:31.973Z,18.30
2023-07-26T01:43:59.574Z,18.30
2023-07-26T01:46:26.585Z,18.20
2023-07-26T01:48:53.638Z,18.20
2023-07-26T01:51:20.827Z,18.10
2023-07-26T01:53:48.065Z,18.10
2023-07-26T01:56:17.232Z,18.10
2023-07-26T01:58:44.185Z,18.00
2023-07-26T02:01:11.484Z,18.00
2023-07-26T02:03:38.407Z,18.00
2023-07-26T02:06:05.358Z,18.00
2023-07-26T02:08:32.492Z,18.00
2023-07-26T02:10:59.675Z,17.90
2023-07-26T02:13:26.679Z,17.90
2023-07-26T02:15:53.981Z,17.90
2023-07-26T02:18:21.213Z,17.80
2023-07-26T02:20:48.247Z,17.80
2023-07-26T02:23:15.770Z,17.80
2023-07-26T02:25:42.759Z,17.70
2023-07-26T02:28:10.294Z,17.80
2023-07-26T02:30:37.858Z,17.70
2023-07-26T02:33:04.874Z,17.70
2023-07-26T02:35:31.967Z,17.70
2023-07-26T02:37:59.079Z,17.70
2023-07-26T02:40:27.042Z,17.70
2023-07-26T02:42:57.900Z,17.70
2023-07-26T02:45:25.193Z,17.70
2023-07-26T02:47:52.156Z,17.70
2023-07-26T02:50:19.283Z,17.60
2023-07-26T02:52:46.561Z,17.60
2023-07-26T02:55:13.570Z,17.60
2023-07-26T02:57:40.668Z,17.50
2023-07-26T03:00:08.319Z,17.50
2023-07-26T03:02:35.733Z,17.40
2023-07-26T03:05:02.837Z,17.40
2023-07-26T03:07:29.870Z,17.40
2023-07-26T03:09:56.884Z,17.30
2023-07-26T03:12:24.014Z,17.30
2023-07-26T03:14:52.073Z,17.30
2023-07-26T03:17:22.660Z,17.20
2023-07-26T03:19:51.127Z,17.30
2023-07-26T03:22:18.205Z,17.30
2023-07-26T03:24:45.613Z,17.30
2023-07-26T03:27:12.966Z,17.30
2023-07-26T03:29:40.069Z,17.30
2023-07-26T03:32:07.977Z,17.30
2023-07-26T03:34:35.998Z,17.40
2023-07-26T03:37:04.116Z,17.40
2023-07-26T03:39:31.564Z,17.40
2023-07-26T03:41:58.837Z,17.40
2023-07-26T03:44:25.936Z,17.40
2023-07-26T03:46:53.331Z,17.40
2023-07-26T03:49:20.447Z,17.30
2023-07-26T03:51:51.293Z,17.30
2023-07-26T03:54:18.695Z,17.30
2023-07-26T03:56:46.426Z,17.40
2023-07-26T03:59:13.383Z,17.40
2023-07-26T04:01:41.238Z,17.40
2023-07-26T04:04:08.634Z,17.40
2023-07-26T04:06:35.924Z,17.40
2023-07-26T04:09:03.092Z,17.40
2023-07-26T04:11:30.382Z,17.40
2023-07-26T04:13:57.285Z,17.40
2023-07-26T04:16:24.485Z,17.40
2023-07-26T04:18:51.628Z,17.30
2023-07-26T04:21:19.629Z,17.30
2023-07-26T04:23:47.658Z,17.30
2023-07-26T04:26:15.159Z,17.30
2023-07-26T04:28:42.491Z,17.30
2023-07-26T04:31:09.761Z,17.20
2023-07-26T04:33:36.808Z,17.10
2023-07-26T04:36:03.991Z,17.10
2023-07-26T04:38:30.907Z,17.10
2023-07-26T04:40:58.272Z,17.10
2023-07-26T04:43:25.212Z,17.10
2023-07-26T04:45:53.415Z,17.10
2023-07-26T04:48:21.476Z,17.20
2023-07-26T04:50:49.780Z,17.20
2023-07-26T04:53:18.109Z,17.20
2023-07-26T04:55:51.143Z,17.20
2023-07-26T04:58:19.330Z,17.10
2023-07-26T05:00:46.978Z,17.10
2023-07-26T05:03:14.604Z,17.20
2023-07-26T05:05:41.516Z,17.20
2023-07-26T05:08:09.620Z,17.30
2023-07-26T05:10:36.809Z,17.20
2023-07-26T05:13:04.129Z,17.30
2023-07-26T05:15:31.549Z,17.40
2023-07-26T05:17:59.051Z,17.40
2023-07-26T05:20:26.238Z,17.40
2023-07-26T05:22:53.132Z,17.50
2023-07-26T05:25:20.631Z,17.60
2023-07-26T05:27:48.001Z,17.70
2023-07-26T05:30:18.977Z,17.70
2023-07-26T05:32:46.271Z,17.80
2023-07-26T05:35:13.490Z,17.90
2023-07-26T05:37:40.727Z,17.90
2023-07-26T05:40:08.493Z,18.00
2023-07-26T05:42:36.484Z,18.10
2023-07-26T05:45:04.008Z,18.20
2023-07-26T05:47:32.368Z,18.30
2023-07-26T05:49:59.633Z,18.30
2023-07-26T05:52:26.620Z,18.30
2023-07-26T05:54:53.718Z,18.20
2023-07-26T05:57:20.758Z,18.20
2023-07-26T05:59:47.672Z,18.20
2023-07-26T06:02:14.810Z,18.20
2023-07-26T06:04:41.841Z,18.20
2023-07-26T06:07:08.903Z,18.20
2023-07-26T06:09:35.865Z,18.20
2023-07-26T06:12:03.143Z,18.20
2023-07-26T06:14:30.820Z,18.30
2023-07-26T06:16:57.926Z,18.30
2023-07-26T06:19:25.036Z,18.30
2023-07-26T06:21:57.042Z,18.30
2023-07-26T06:24:31.694Z,18.30
2023-07-26T06:27:00.394Z,18.10
2023-07-26T06:29:28.049Z,17.90
2023-07-26T06:31:55.072Z,17.80
2023-07-26T06:34:23.085Z,17.80
2023-07-26T06:36:50.146Z,17.80
2023-07-26T06:39:17.232Z,17.80
2023-07-26T06:41:44.382Z,17.90
2023-07-26T06:44:11.558Z,18.00
2023-07-26T06:46:40.394Z,18.00
2023-07-26T06:49:07.495Z,18.10
2023-07-26T06:51:34.755Z,18.10
2023-07-26T06:54:02.092Z,18.10
2023-07-26T06:56:28.948Z,18.10
2023-07-26T06:58:55.821Z,18.10
2023-07-26T07:01:23.031Z,18.20
2023-07-26T07:03:59.108Z,18.20
2023-07-26T07:06:34.733Z,18.20
2023-07-26T07:09:01.751Z,18.20
2023-07-26T07:11:28.879Z,18.10
2023-07-26T07:13:57.740Z,18.10
2023-07-26T07:16:24.853Z,18.10
2023-07-26T07:18:51.920Z,18.10
2023-07-26T07:21:19.110Z,18.20
2023-07-26T07:23:46.134Z,18.20
2023-07-26T07:26:13.203Z,18.40
2023-07-26T07:28:40.321Z,18.60
2023-07-26T07:31:07.722Z,19.00
2023-07-26T07:33:35.021Z,19.30
2023-07-26T07:36:02.291Z,19.70
2023-07-26T07:38:29.428Z,20.00
2023-07-26T07:40:56.373Z,20.10
2023-07-26T07:46:04.201Z,20.20
2023-07-26T07:48:31.514Z,20.20
2023-07-26T07:50:59.124Z,20.30
2023-07-26T07:53:26.564Z,20.30
2023-07-26T07:55:55.038Z,20.30
2023-07-26T07:58:22.125Z,20.40
2023-07-26T08:00:49.423Z,20.50
2023-07-26T08:03:17.158Z,20.70
2023-07-26T08:05:44.317Z,20.90
2023-07-26T08:08:12.048Z,21.10
2023-07-26T08:10:40.022Z,21.50
2023-07-26T08:13:07.255Z,21.70
2023-07-26T08:15:37.295Z,22.00
2023-07-26T08:18:04.304Z,22.20
2023-07-26T08:20:37.952Z,22.50
2023-07-26T08:23:05.792Z,22.70
2023-07-26T08:25:33.653Z,22.80
2023-07-26T08:28:00.871Z,22.90
2023-07-26T08:30:28.478Z,23.10
2023-07-26T08:32:55.580Z,23.10
2023-07-26T08:35:22.916Z,23.30
2023-07-26T08:37:50.584Z,23.40
2023-07-26T08:40:18.069Z,23.50
2023-07-26T08:42:45.974Z,23.60
2023-07-26T08:45:13.912Z,23.70
2023-07-26T08:47:41.379Z,23.90
2023-07-26T08:50:08.970Z,24.10
2023-07-26T08:52:36.435Z,24.40
2023-07-26T08:55:03.772Z,24.70
2023-07-26T08:57:30.856Z,24.80
2023-07-26T08:59:58.804Z,24.90
2023-07-26T09:02:27.333Z,24.90
2023-07-26T09:04:54.373Z,24.80
2023-07-26T09:07:21.358Z,24.60
2023-07-26T09:09:48.457Z,24.50
2023-07-26T09:12:27.455Z,24.40
2023-07-26T09:14:57.756Z,24.50
2023-07-26T09:17:40.816Z,24.50
2023-07-26T09:20:23.842Z,24.70
2023-07-26T09:23:01.768Z,24.90
2023-07-26T09:25:33.165Z,25.20
2023-07-26T09:28:00.364Z,25.50
2023-07-26T09:30:27.758Z,25.80
2023-07-26T09:32:58.406Z,25.90
2023-07-26T09:35:25.534Z,26.00
2023-07-26T09:37:53.044Z,26.00
2023-07-26T09:40:38.172Z,26.10
2023-07-26T09:43:05.640Z,26.10
2023-07-26T09:45:32.785Z,26.10
2023-07-26T09:50:44.813Z,26.30
2023-07-26T09:53:12.862Z,26.40
2023-07-26T09:55:40.940Z,26.40
2023-07-26T09:58:09.180Z,26.40
2023-07-26T10:00:37.783Z,26.40
2023-07-26T10:03:07.048Z,26.40
2023-07-26T10:05:43.406Z,26.50
2023-07-26T10:08:11.020Z,26.50
2023-07-26T10:10:38.041Z,26.70
2023-07-26T10:13:06.428Z,26.70
2023-07-26T10:15:34.989Z,26.90
2023-07-26T10:18:02.375Z,27.00
2023-07-26T10:20:29.858Z,27.10
2023-07-26T10:23:05.362Z,27.20
2023-07-26T10:25:34.689Z,27.40
2023-07-26T10:28:02.340Z,27.60
2023-07-26T10:30:31.614Z,27.60
2023-07-26T10:33:01.334Z,27.50
2023-07-26T10:35:33.888Z,27.30
2023-07-26T10:38:04.162Z,27.20
2023-07-26T10:40:39.307Z,27.30
2023-07-26T10:43:22.329Z,27.40
2023-07-26T10:45:55.992Z,27.30
2023-07-26T10:48:41.870Z,27.10
2023-07-26T10:51:34.894Z,27.00
2023-07-26T10:54:05.451Z,26.90
2023-07-26T10:56:34.046Z,26.80
2023-07-26T10:59:04.820Z,26.80
2023-07-26T11:01:38.314Z,26.90
2023-07-26T11:04:16.762Z,27.20
2023-07-26T11:06:56.952Z,27.50
2023-07-26T11:09:31.520Z,27.70
2023-07-26T11:12:13.754Z,27.80
2023-07-26T11:14:42.697Z,28.00
2023-07-26T11:17:12.912Z,28.10
2023-07-26T11:19:49.862Z,28.20
2023-07-26T11:22:18.824Z,28.10
2023-07-26T11:24:47.816Z,28.00
2023-07-26T11:27:15.169Z,27.90
2023-07-26T11:29:42.691Z,27.80
2023-07-26T11:32:09.809Z,27.80
2023-07-26T11:34:36.936Z,27.80
2023-07-26T11:37:08.508Z,27.60
2023-07-26T11:39:35.583Z,27.50
2023-07-26T11:42:03.379Z,27.60
2023-07-26T11:44:31.275Z,27.70
2023-07-26T11:47:02.272Z,27.80
2023-07-26T11:49:29.678Z,27.90
2023-07-26T11:51:59.650Z,27.90
2023-07-26T11:54:26.840Z,27.90
2023-07-26T11:56:53.895Z,27.90
2023-07-26T11:59:21.620Z,28.00
2023-07-26T12:01:49.125Z,28.10
2023-07-26T12:04:19.668Z,28.30
2023-07-26T12:06:49.833Z,28.40
2023-07-26T12:09:17.026Z,28.50
2023-07-26T12:11:52.884Z,28.70
2023-07-26T12:14:21.581Z,28.80
2023-07-26T12:16:53.341Z,28.80
2023-07-26T12:19:25.432Z,28.80
2023-07-26T12:21:53.480Z,28.70
2023-07-26T12:24:21.132Z,28.50
2023-07-26T12:26:50.564Z,28.30
2023-07-26T12:29:17.763Z,28.20
2023-07-26T12:31:45.140Z,28.20
2023-07-26T12:34:14.424Z,28.20
2023-07-26T12:36:47.575Z,28.20
2023-07-26T12:39:17.031Z,28.00
2023-07-26T12:41:46.273Z,27.80
2023-07-26T12:44:16.204Z,27.80
2023-07-26T12:49:14.056Z,28.00
2023-07-26T12:51:41.320Z,28.10
2023-07-26T12:54:08.880Z,27.90
2023-07-26T12:56:36.429Z,27.70
2023-07-26T12:59:08.535Z,27.50
2023-07-26T13:01:40.455Z,27.30
2023-07-26T13:04:09.314Z,27.00
2023-07-26T13:06:38.312Z,26.90
2023-07-26T13:09:06.547Z,26.80
2023-07-26T13:11:33.705Z,26.80
2023-07-26T13:14:00.792Z,26.60
2023-07-26T13:16:31.399Z,26.60
2023-07-26T13:19:01.040Z,26.50
2023-07-26T13:21:28.564Z,26.40
2023-07-26T13:23:55.820Z,26.40
2023-07-26T13:26:22.865Z,26.30
2023-07-26T13:28:50.147Z,26.30
2023-07-26T13:31:18.219Z,26.30
2023-07-26T13:33:50.858Z,26.20
2023-07-26T13:36:25.136Z,26.20
2023-07-26T13:38:52.600Z,26.20
2023-07-26T13:41:20.426Z,26.20
2023-07-26T13:43:48.378Z,26.10
2023-07-26T13:48:45.491Z,26.10
2023-07-26T13:51:12.616Z,26.10
2023-07-26T13:53:39.722Z,26.00
2023-07-26T13:56:06.783Z,25.90
2023-07-26T13:58:34.369Z,25.80
2023-07-26T14:01:01.446Z,25.80
2023-07-26T14:03:28.493Z,25.70
2023-07-26T14:05:55.794Z,25.60
2023-07-26T14:08:22.965Z,25.70
2023-07-26T14:10:50.128Z,25.70
2023-07-26T14:13:17.457Z,25.80
2023-07-26T14:15:44.452Z,25.80
2023-07-26T14:18:11.473Z,25.70
2023-07-26T14:20:39.261Z,25.70
2023-07-26T14:23:07.367Z,25.70
2023-07-26T14:25:35.000Z,25.70
2023-07-26T14:28:02.081Z,25.60
2023-07-26T14:30:29.357Z,25.60
2023-07-26T14:32:56.322Z,25.70
2023-07-26T14:35:23.889Z,25.60
2023-07-26T14:37:50.937Z,25.50
2023-07-26T14:40:18.115Z,25.40
2023-07-26T14:42:45.093Z,25.40
2023-07-26T14:45:12.086Z,25.30
2023-07-26T14:47:39.067Z,25.30
2023-07-26T14:50:07.478Z,25.20
2023-07-26T14:52:34.655Z,25.10
2023-07-26T14:55:01.569Z,25.20
2023-07-26T14:57:28.654Z,25.10
2023-07-26T14:59:55.668Z,25.10
2023-07-26T15:02:22.577Z,25.10
2023-07-26T15:04:49.603Z,25.10
2023-07-26T15:07:16.736Z,25.10
2023-07-26T15:09:43.743Z,25.00
2023-07-26T15:12:11.793Z,25.10
2023-07-26T15:14:41.198Z,25.00
2023-07-26T15:17:08.240Z,25.00
2023-07-26T15:19:36.092Z,25.00
2023-07-26T15:22:03.387Z,25.00
2023-07-26T15:24:30.454Z,25.00
2023-07-26T15:26:57.519Z,25.00
2023-07-26T15:29:25.709Z,24.90
2023-07-26T15:31:52.794Z,25.00
2023-07-26T15:34:20.061Z,25.10
2023-07-26T15:36:47.007Z,25.10
2023-07-26T15:39:13.961Z,25.10
2023-07-26T15:44:12.402Z,25.00
2023-07-26T15:46:42.589Z,24.90
2023-07-26T15:49:17.159Z,24.90
2023-07-26T15:51:44.501Z,24.90
2023-07-26T15:54:11.457Z,24.90
2023-07-26T15:56:38.463Z,24.90
2023-07-26T15:59:05.441Z,24.90
2023-07-26T16:01:32.874Z,24.90
2023-07-26T16:04:00.130Z,24.90
2023-07-26T16:06:28.634Z,24.90
2023-07-26T16:09:28.069Z,24.80
2023-07-26T16:19:16.725Z,24.80
2023-07-26T16:24:13.834Z,24.90
2023-07-26T16:26:42.833Z,24.80
2023-07-26T16:29:09.768Z,24.80
2023-07-26T16:31:36.865Z,24.70
2023-07-26T16:34:04.383Z,24.70
2023-07-26T16:36:31.295Z,24.70
2023-07-26T16:38:58.224Z,24.60
2023-07-26T16:41:25.301Z,24.60
2023-07-26T16:43:52.425Z,24.60
2023-07-26T16:46:19.472Z,24.50
2023-07-26T16:48:46.722Z,24.50
2023-07-26T16:51:13.937Z,24.50
2023-07-26T16:53:40.916Z,24.50
2023-07-26T16:56:08.021Z,24.40
2023-07-26T16:58:34.991Z,24.40
2023-07-26T17:01:03.597Z,24.50
2023-07-26T17:03:30.896Z,24.50
2023-07-26T17:05:57.871Z,24.50
2023-07-26T17:08:25.006Z,24.50
2023-07-26T17:10:53.142Z,24.50
2023-07-26T17:13:21.646Z,24.60
2023-07-26T17:15:48.708Z,24.60
2023-07-26T17:18:15.803Z,24.60
2023-07-26T17:20:44.753Z,24.50
2023-07-26T17:23:12.137Z,24.50
2023-07-26T17:25:39.173Z,24.50
2023-07-26T17:28:06.324Z,24.50
2023-07-26T17:30:33.369Z,24.40
2023-07-26T17:33:01.020Z,24.40
2023-07-26T17:35:29.607Z,24.40
2023-07-26T17:37:56.731Z,24.50
2023-07-26T17:40:23.818Z,24.50
2023-07-26T17:42:50.963Z,24.50
2023-07-26T17:45:18.373Z,24.50
2023-07-26T17:47:49.197Z,24.50
2023-07-26T17:50:16.521Z,24.50
2023-07-26T17:52:43.589Z,24.50
2023-07-26T17:55:10.651Z,24.50
2023-07-26T17:57:37.846Z,24.50
2023-07-26T18:00:05.355Z,24.50
2023-07-26T18:02:32.633Z,24.40
2023-07-26T18:05:00.670Z,24.40
2023-07-26T18:07:27.594Z,24.50
2023-07-26T18:09:55.059Z,24.50
2023-07-26T18:12:22.157Z,24.50
2023-07-26T18:14:50.860Z,24.40
2023-07-26T18:17:18.094Z,24.50
2023-07-26T18:19:45.072Z,24.40
2023-07-26T18:22:12.096Z,24.40
2023-07-26T18:24:39.436Z,24.30
2023-07-26T18:27:06.686Z,24.30
2023-07-26T18:29:34.328Z,24.40
2023-07-26T18:32:01.208Z,24.40
2023-07-26T18:34:29.158Z,24.50
2023-07-26T18:36:56.280Z,24.50
2023-07-26T18:39:24.127Z,24.40
2023-07-26T18:41:51.229Z,24.40
2023-07-26T18:44:18.574Z,24.40
2023-07-26T18:46:45.848Z,24.40
2023-07-26T18:49:12.753Z,24.40
2023-07-26T18:51:39.778Z,24.30
2023-07-26T18:54:07.611Z,24.30
2023-07-26T18:56:34.717Z,24.30
2023-07-26T18:59:02.298Z,24.30
2023-07-26T19:01:29.447Z,24.30
2023-07-26T19:03:56.339Z,24.20
2023-07-26T19:06:23.713Z,24.20
2023-07-26T19:08:50.790Z,24.10
2023-07-26T19:11:17.798Z,24.10
2023-07-26T19:13:47.242Z,24.10
2023-07-26T19:16:14.465Z,24.10
2023-07-26T19:18:41.540Z,24.00
2023-07-26T19:21:08.997Z,23.90
2023-07-26T19:23:36.044Z,23.90
2023-07-26T19:26:03.355Z,23.90
2023-07-26T19:28:30.625Z,23.80
2023-07-26T19:31:02.823Z,23.80
2023-07-26T19:33:30.145Z,23.80
2023-07-26T19:35:58.305Z,23.70
2023-07-26T19:38:26.767Z,23.70
2023-07-26T19:41:16.936Z,23.70
2023-07-26T19:43:45.204Z,23.60
2023-07-26T19:46:13.055Z,23.50
2023-07-26T19:48:40.410Z,23.50
2023-07-26T19:51:07.833Z,23.50
2023-07-26T19:53:34.893Z,23.50
2023-07-26T19:56:03.179Z,23.40
2023-07-26T19:58:30.298Z,23.30
2023-07-26T20:00:58.352Z,23.20
2023-07-26T20:03:26.465Z,23.20
2023-07-26T20:05:54.281Z,23.10
2023-07-26T20:08:23.494Z,23.00
2023-07-26T20:10:51.461Z,23.00
2023-07-26T20:13:19.211Z,23.00
2023-07-26T20:15:46.720Z,23.00
2023-07-26T20:18:14.531Z,23.00
2023-07-26T20:20:42.961Z,23.00
2023-07-26T20:23:10.829Z,22.90
2023-07-26T20:25:39.532Z,22.90
2023-07-26T20:28:07.445Z,22.90
2023-07-26T20:30:36.162Z,22.80
2023-07-26T20:33:03.246Z,22.70
2023-07-26T20:35:30.558Z,22.70
2023-07-26T20:37:57.536Z,22.60
2023-07-26T20:40:24.725Z,22.60
2023-07-26T20:42:51.887Z,22.60
2023-07-26T20:45:18.971Z,22.60
2023-07-26T20:47:45.887Z,22.50
2023-07-26T20:50:13.025Z,22.50
2023-07-26T20:52:40.118Z,22.50
2023-07-26T20:55:07.473Z,22.50
2023-07-26T20:57:34.547Z,22.50
2023-07-26T21:00:01.882Z,22.50
2023-07-26T21:02:28.940Z,22.50
2023-07-26T21:04:56.170Z,22.50
2023-07-26T21:07:23.363Z,22.40
2023-07-26T21:09:50.346Z,22.40
2023-07-26T21:12:17.620Z,22.40
2023-07-26T21:14:45.633Z,22.40
2023-07-26T21:17:12.913Z,22.30
2023-07-26T21:19:41.071Z,22.30
2023-07-26T21:22:08.184Z,22.30
2023-07-26T21:24:35.358Z,22.30
2023-07-26T21:27:02.603Z,22.20
2023-07-26T21:29:29.571Z,22.10
2023-07-26T21:31:56.799Z,22.20
2023-07-26T21:34:25.171Z,22.20
2023-07-26T21:36:52.218Z,22.10
2023-07-26T21:39:19.382Z,22.20
2023-07-26T21:41:47.459Z,22.20
2023-07-26T21:44:14.416Z,22.10
2023-07-26T21:46:41.672Z,22.10
2023-07-26T21:49:08.919Z,22.10
2023-07-26T21:51:37.095Z,22.10
2023-07-26T21:54:04.639Z,22.10
2023-07-26T21:56:34.080Z,22.10
2023-07-26T21:59:01.431Z,22.00
2023-07-26T22:01:28.566Z,22.00
2023-07-26T22:03:55.778Z,22.00
2023-07-26T22:06:22.875Z,22.00
2023-07-26T22:08:50.694Z,22.00
2023-07-26T22:11:17.969Z,22.00
2023-07-26T22:13:45.283Z,21.90
2023-07-26T22:16:12.413Z,21.90
2023-07-26T22:18:39.519Z,21.90
2023-07-26T22:21:16.205Z,21.90
2023-07-26T22:23:45.608Z,21.90
2023-07-26T22:26:15.495Z,21.80
2023-07-26T22:28:45.589Z,21.70
2023-07-26T22:31:13.724Z,21.70
2023-07-26T22:33:40.948Z,21.80
2023-07-26T22:36:08.098Z,21.70
2023-07-26T22:38:35.173Z,21.70
2023-07-26T22:41:02.987Z,21.70
2023-07-26T22:43:30.081Z,21.70
2023-07-26T22:45:57.584Z,21.70
2023-07-26T22:48:24.618Z,21.70
2023-07-26T22:50:51.674Z,21.70
2023-07-26T22:53:20.769Z,21.70
2023-07-26T22:55:48.141Z,21.70
2023-07-26T22:58:15.049Z,21.60
2023-07-26T23:00:42.050Z,21.60
2023-07-26T23:03:09.261Z,21.60
2023-07-26T23:05:36.410Z,21.60
2023-07-26T23:08:03.652Z,21.60
2023-07-26T23:10:30.564Z,21.60
2023-07-26T23:12:57.474Z,21.60
2023-07-26T23:15:25.887Z,21.50
2023-07-26T23:17:53.567Z,21.50
2023-07-26T23:20:20.700Z,21.50
2023-07-26T23:22:47.929Z,21.40
2023-07-26T23:25:14.901Z,21.40
2023-07-26T23:27:42.175Z,21.30
2023-07-26T23:30:10.321Z,21.30
2023-07-26T23:32:37.241Z,21.30
2023-07-26T23:35:05.523Z,21.30
2023-07-26T23:37:32.742Z,21.30
2023-07-26T23:40:00.135Z,21.30
2023-07-26T23:42:27.260Z,21.30
2023-07-26T23:44:54.662Z,21.30
2023-07-26T23:47:22.011Z,21.30
2023-07-26T23:49:49.204Z,21.30
2023-07-26T23:52:16.901Z,21.30
2023-07-26T23:54:43.920Z,21.30
2023-07-26T23:57:11.028Z,21.30
2023-07-26T23:59:38.190Z,21.30
